sensor_id;sensor_type;location;lat;lon;timestamp;P1;durP1;ratioP1;P2;durP2;ratioP2
7497;SDS011;3790;48.806;9.140;2023-05-14T00:01:00;8.30;;;6.83;;
7497;SDS011;3790;48.806;9.140;2023-05-14T00:06:01;7.60;;;5.53;;
7497;SDS011;3790;48.806;9.140;2023-05-14T00:11:02;6.87;;;6.20;;
7497;SDS011;3790;48.806;9.140;2023-05-14T00:16:02;7.53;;;6.27;;
7497;SDS011;3790;48.806;9.140;2023-05-14T00:21:03;8.43;;;6.53;;
7497;SDS011;3790;48.806;9.140;2023-05-14T00:26:03;7.83;;;5.90;;
7497;SDS011;3790;48.806;9.140;2023-05-14T00:31:04;8.40;;;6.47;;
7497;SDS011;3790;48.806;9.140;2023-05-14T00:36:04;8.90;;;7.00;;
7497;SDS011;3790;48.806;9.140;2023-05-14T00:41:05;7.77;;;6.47;;
7497;SDS011;3790;48.806;9.140;2023-05-14T00:46:06;7.53;;;6.13;;
7497;SDS011;3790;48.806;9.140;2023-05-14T00:51:07;8.10;;;6.53;;
7497;SDS011;3790;48.806;9.140;2023-05-14T00:56:07;7.50;;;6.63;;
7497;SDS011;3790;48.806;9.140;2023-05-14T01:01:08;8.47;;;6.60;;
7497;SDS011;3790;48.806;9.140;2023-05-14T01:06:25;8.73;;;7.83;;
7497;SDS011;3790;48.806;9.140;2023-05-14T01:17:03;8.53;;;7.57;;
7497;SDS011;3790;48.806;9.140;2023-05-14T01:22:05;8.60;;;7.57;;
7497;SDS011;3790;48.806;9.140;2023-05-14T01:27:06;8.13;;;6.97;;
7497;SDS011;3790;48.806;9.140;2023-05-14T01:32:08;9.80;;;7.27;;
7497;SDS011;3790;48.806;9.140;2023-05-14T01:37:10;7.80;;;6.97;;
7497;SDS011;3790;48.806;9.140;2023-05-14T01:42:12;8.13;;;7.07;;
7497;SDS011;3790;48.806;9.140;2023-05-14T01:47:13;9.80;;;7.43;;
7497;SDS011;3790;48.806;9.140;2023-05-14T01:52:15;10.30;;;9.10;;
7497;SDS011;3790;48.806;9.140;2023-05-14T01:57:19;10.20;;;9.17;;
7497;SDS011;3790;48.806;9.140;2023-05-14T02:02:20;9.47;;;8.20;;
7497;SDS011;3790;48.806;9.140;2023-05-14T02:07:21;9.23;;;8.33;;
7497;SDS011;3790;48.806;9.140;2023-05-14T02:12:21;9.63;;;8.63;;
7497;SDS011;3790;48.806;9.140;2023-05-14T02:17:23;10.93;;;8.70;;
7497;SDS011;3790;48.806;9.140;2023-05-14T02:22:25;9.13;;;8.20;;
7497;SDS011;3790;48.806;9.140;2023-05-14T02:27:25;9.97;;;8.97;;
7497;SDS011;3790;48.806;9.140;2023-05-14T02:32:26;9.70;;;8.77;;
7497;SDS011;3790;48.806;9.140;2023-05-14T02:37:27;9.70;;;8.70;;
7497;SDS011;3790;48.806;9.140;2023-05-14T02:42:27;9.57;;;8.67;;
7497;SDS011;3790;48.806;9.140;2023-05-14T02:47:28;16.27;;;9.10;;
7497;SDS011;3790;48.806;9.140;2023-05-14T02:52:28;10.10;;;9.10;;
7497;SDS011;3790;48.806;9.140;2023-05-14T02:57:29;10.30;;;9.23;;
7497;SDS011;3790;48.806;9.140;2023-05-14T03:02:29;9.70;;;7.80;;
7497;SDS011;3790;48.806;9.140;2023-05-14T03:07:30;9.13;;;8.23;;
7497;SDS011;3790;48.806;9.140;2023-05-14T03:12:33;9.67;;;8.30;;
7497;SDS011;3790;48.806;9.140;2023-05-14T03:17:33;10.10;;;9.03;;
7497;SDS011;3790;48.806;9.140;2023-05-14T03:22:34;9.33;;;7.83;;
7497;SDS011;3790;48.806;9.140;2023-05-14T03:27:35;8.13;;;7.37;;
7497;SDS011;3790;48.806;9.140;2023-05-14T03:32:35;9.67;;;8.67;;
7497;SDS011;3790;48.806;9.140;2023-05-14T03:37:36;10.53;;;9.00;;
7497;SDS011;3790;48.806;9.140;2023-05-14T03:42:37;9.87;;;8.90;;
7497;SDS011;3790;48.806;9.140;2023-05-14T03:47:37;9.23;;;8.00;;
7497;SDS011;3790;48.806;9.140;2023-05-14T03:52:38;9.37;;;8.47;;
7497;SDS011;3790;48.806;9.140;2023-05-14T03:57:39;9.50;;;7.80;;
7497;SDS011;3790;48.806;9.140;2023-05-14T04:02:39;9.40;;;7.47;;
7497;SDS011;3790;48.806;9.140;2023-05-14T04:07:40;8.00;;;7.00;;
7497;SDS011;3790;48.806;9.140;2023-05-14T04:12:40;8.40;;;7.03;;
7497;SDS011;3790;48.806;9.140;2023-05-14T04:17:41;9.83;;;7.63;;
7497;SDS011;3790;48.806;9.140;2023-05-14T04:22:42;8.70;;;7.60;;
7497;SDS011;3790;48.806;9.140;2023-05-14T04:27:42;8.47;;;7.60;;
7497;SDS011;3790;48.806;9.140;2023-05-14T04:32:43;7.60;;;6.83;;
7497;SDS011;3790;48.806;9.140;2023-05-14T04:37:43;16.43;;;7.37;;
7497;SDS011;3790;48.806;9.140;2023-05-14T04:42:44;8.10;;;7.30;;
7497;SDS011;3790;48.806;9.140;2023-05-14T04:47:44;7.97;;;6.67;;
7497;SDS011;3790;48.806;9.140;2023-05-14T04:52:45;7.70;;;6.20;;
7497;SDS011;3790;48.806;9.140;2023-05-14T04:57:46;8.13;;;6.87;;
7497;SDS011;3790;48.806;9.140;2023-05-14T05:02:46;7.23;;;6.53;;
7497;SDS011;3790;48.806;9.140;2023-05-14T05:07:47;8.10;;;7.17;;
7497;SDS011;3790;48.806;9.140;2023-05-14T05:12:47;7.43;;;6.70;;
7497;SDS011;3790;48.806;9.140;2023-05-14T05:17:48;7.67;;;6.77;;
7497;SDS011;3790;48.806;9.140;2023-05-14T05:22:48;7.43;;;6.60;;
7497;SDS011;3790;48.806;9.140;2023-05-14T05:27:49;9.93;;;6.13;;
7497;SDS011;3790;48.806;9.140;2023-05-14T05:32:49;6.23;;;5.63;;
7497;SDS011;3790;48.806;9.140;2023-05-14T05:37:50;7.73;;;6.30;;
7497;SDS011;3790;48.806;9.140;2023-05-14T05:42:51;6.87;;;5.97;;
7497;SDS011;3790;48.806;9.140;2023-05-14T05:47:51;6.70;;;6.00;;
7497;SDS011;3790;48.806;9.140;2023-05-14T05:52:52;7.30;;;6.10;;
7497;SDS011;3790;48.806;9.140;2023-05-14T05:57:52;6.00;;;5.17;;
7497;SDS011;3790;48.806;9.140;2023-05-14T06:02:53;6.53;;;5.83;;
7497;SDS011;3790;48.806;9.140;2023-05-14T06:07:55;6.67;;;5.13;;
7497;SDS011;3790;48.806;9.140;2023-05-14T06:12:55;6.00;;;4.47;;
7497;SDS011;3790;48.806;9.140;2023-05-14T06:17:56;7.53;;;4.50;;
7497;SDS011;3790;48.806;9.140;2023-05-14T06:22:57;6.80;;;4.87;;
7497;SDS011;3790;48.806;9.140;2023-05-14T06:27:57;7.50;;;5.30;;
7497;SDS011;3790;48.806;9.140;2023-05-14T06:32:58;5.73;;;4.60;;
7497;SDS011;3790;48.806;9.140;2023-05-14T06:37:58;5.67;;;4.57;;
7497;SDS011;3790;48.806;9.140;2023-05-14T06:42:59;6.07;;;4.83;;
7497;SDS011;3790;48.806;9.140;2023-05-14T06:48:00;5.43;;;4.23;;
7497;SDS011;3790;48.806;9.140;2023-05-14T06:53:00;5.23;;;4.70;;
7497;SDS011;3790;48.806;9.140;2023-05-14T06:58:01;5.23;;;3.97;;
7497;SDS011;3790;48.806;9.140;2023-05-14T07:03:03;9.10;;;5.20;;
7497;SDS011;3790;48.806;9.140;2023-05-14T07:08:03;5.53;;;4.30;;
7497;SDS011;3790;48.806;9.140;2023-05-14T07:13:04;5.67;;;4.50;;
7497;SDS011;3790;48.806;9.140;2023-05-14T07:18:05;6.28;;;4.57;;
7497;SDS011;3790;48.806;9.140;2023-05-14T07:23:05;6.20;;;5.20;;
7497;SDS011;3790;48.806;9.140;2023-05-14T07:28:06;5.50;;;4.30;;
7497;SDS011;3790;48.806;9.140;2023-05-14T07:33:06;4.63;;;4.10;;
7497;SDS011;3790;48.806;9.140;2023-05-14T07:38:07;6.57;;;5.03;;
7497;SDS011;3790;48.806;9.140;2023-05-14T07:43:08;6.13;;;4.95;;
7497;SDS011;3790;48.806;9.140;2023-05-14T07:48:11;5.88;;;4.80;;
7497;SDS011;3790;48.806;9.140;2023-05-14T07:53:12;6.82;;;4.63;;
7497;SDS011;3790;48.806;9.140;2023-05-14T07:58:12;6.95;;;4.82;;
7497;SDS011;3790;48.806;9.140;2023-05-14T08:03:13;5.80;;;4.13;;
7497;SDS011;3790;48.806;9.140;2023-05-14T08:08:14;5.45;;;4.10;;
7497;SDS011;3790;48.806;9.140;2023-05-14T08:13:15;7.53;;;4.55;;
7497;SDS011;3790;48.806;9.140;2023-05-14T08:18:15;6.30;;;4.00;;
7497;SDS011;3790;48.806;9.140;2023-05-14T08:23:16;6.57;;;4.53;;
7497;SDS011;3790;48.806;9.140;2023-05-14T08:28:16;6.50;;;5.10;;
7497;SDS011;3790;48.806;9.140;2023-05-14T08:33:17;7.75;;;4.78;;
7497;SDS011;3790;48.806;9.140;2023-05-14T08:38:17;6.00;;;4.40;;
7497;SDS011;3790;48.806;9.140;2023-05-14T08:43:19;7.60;;;5.38;;
7497;SDS011;3790;48.806;9.140;2023-05-14T08:48:25;6.95;;;4.60;;
7497;SDS011;3790;48.806;9.140;2023-05-14T08:53:28;4.85;;;4.07;;
7497;SDS011;3790;48.806;9.140;2023-05-14T08:58:30;6.45;;;4.47;;
7497;SDS011;3790;48.806;9.140;2023-05-14T09:03:30;6.05;;;4.10;;
7497;SDS011;3790;48.806;9.140;2023-05-14T09:08:32;7.10;;;5.03;;
7497;SDS011;3790;48.806;9.140;2023-05-14T09:13:36;6.47;;;4.85;;
7497;SDS011;3790;48.806;9.140;2023-05-14T09:18:37;6.60;;;5.30;;
7497;SDS011;3790;48.806;9.140;2023-05-14T09:23:43;6.47;;;5.38;;
7497;SDS011;3790;48.806;9.140;2023-05-14T09:28:44;7.88;;;5.40;;
7497;SDS011;3790;48.806;9.140;2023-05-14T09:33:48;6.40;;;5.15;;
7497;SDS011;3790;48.806;9.140;2023-05-14T09:38:50;6.40;;;4.47;;
7497;SDS011;3790;48.806;9.140;2023-05-14T09:43:50;8.00;;;4.88;;
7497;SDS011;3790;48.806;9.140;2023-05-14T09:48:51;4.65;;;3.90;;
7497;SDS011;3790;48.806;9.140;2023-05-14T09:53:51;5.43;;;4.07;;
7497;SDS011;3790;48.806;9.140;2023-05-14T09:58:53;5.00;;;4.15;;
7497;SDS011;3790;48.806;9.140;2023-05-14T10:03:54;7.07;;;4.90;;
7497;SDS011;3790;48.806;9.140;2023-05-14T10:08:55;7.07;;;4.20;;
7497;SDS011;3790;48.806;9.140;2023-05-14T10:14:08;5.97;;;3.92;;
7497;SDS011;3790;48.806;9.140;2023-05-14T10:19:18;5.57;;;4.03;;
7497;SDS011;3790;48.806;9.140;2023-05-14T10:24:20;5.05;;;3.17;;
7497;SDS011;3790;48.806;9.140;2023-05-14T10:29:34;4.72;;;3.22;;
7497;SDS011;3790;48.806;9.140;2023-05-14T10:39:52;4.38;;;3.15;;
7497;SDS011;3790;48.806;9.140;2023-05-14T10:44:56;4.57;;;3.45;;
7497;SDS011;3790;48.806;9.140;2023-05-14T10:50:07;4.28;;;3.30;;
7497;SDS011;3790;48.806;9.140;2023-05-14T10:55:13;4.13;;;2.90;;
7497;SDS011;3790;48.806;9.140;2023-05-14T11:00:15;4.18;;;3.55;;
7497;SDS011;3790;48.806;9.140;2023-05-14T11:05:15;6.00;;;3.60;;
7497;SDS011;3790;48.806;9.140;2023-05-14T11:10:17;5.45;;;3.92;;
7497;SDS011;3790;48.806;9.140;2023-05-14T11:15:22;6.03;;;4.47;;
7497;SDS011;3790;48.806;9.140;2023-05-14T11:20:23;5.35;;;3.38;;
7497;SDS011;3790;48.806;9.140;2023-05-14T11:25:24;4.13;;;3.08;;
7497;SDS011;3790;48.806;9.140;2023-05-14T11:30:24;3.83;;;3.20;;
7497;SDS011;3790;48.806;9.140;2023-05-14T11:35:25;3.42;;;2.92;;
7497;SDS011;3790;48.806;9.140;2023-05-14T11:40:26;5.32;;;3.35;;
7497;SDS011;3790;48.806;9.140;2023-05-14T11:45:27;6.38;;;3.05;;
7497;SDS011;3790;48.806;9.140;2023-05-14T11:50:28;4.40;;;3.17;;
7497;SDS011;3790;48.806;9.140;2023-05-14T11:55:29;3.58;;;3.00;;
7497;SDS011;3790;48.806;9.140;2023-05-14T12:00:32;4.10;;;3.22;;
7497;SDS011;3790;48.806;9.140;2023-05-14T12:05:33;4.35;;;2.72;;
7497;SDS011;3790;48.806;9.140;2023-05-14T12:10:41;5.65;;;2.80;;
7497;SDS011;3790;48.806;9.140;2023-05-14T12:15:45;3.95;;;2.90;;
7497;SDS011;3790;48.806;9.140;2023-05-14T12:21:00;3.90;;;2.85;;
7497;SDS011;3790;48.806;9.140;2023-05-14T12:26:07;5.85;;;3.10;;
7497;SDS011;3790;48.806;9.140;2023-05-14T12:31:08;3.97;;;2.47;;
7497;SDS011;3790;48.806;9.140;2023-05-14T12:36:08;3.88;;;3.20;;
7497;SDS011;3790;48.806;9.140;2023-05-14T12:41:09;4.18;;;2.53;;
7497;SDS011;3790;48.806;9.140;2023-05-14T12:46:10;3.15;;;2.13;;
7497;SDS011;3790;48.806;9.140;2023-05-14T12:51:11;3.15;;;2.17;;
7497;SDS011;3790;48.806;9.140;2023-05-14T12:56:11;3.50;;;2.40;;
7497;SDS011;3790;48.806;9.140;2023-05-14T13:01:12;3.67;;;2.30;;
7497;SDS011;3790;48.806;9.140;2023-05-14T13:06:12;4.20;;;2.30;;
7497;SDS011;3790;48.806;9.140;2023-05-14T13:11:13;3.10;;;1.98;;
7497;SDS011;3790;48.806;9.140;2023-05-14T13:16:17;4.85;;;2.60;;
7497;SDS011;3790;48.806;9.140;2023-05-14T13:21:17;4.35;;;2.40;;
7497;SDS011;3790;48.806;9.140;2023-05-14T13:26:18;4.25;;;2.35;;
7497;SDS011;3790;48.806;9.140;2023-05-14T13:31:18;3.85;;;2.13;;
7497;SDS011;3790;48.806;9.140;2023-05-14T13:36:19;2.95;;;2.20;;
7497;SDS011;3790;48.806;9.140;2023-05-14T13:41:26;5.00;;;2.47;;
7497;SDS011;3790;48.806;9.140;2023-05-14T13:46:27;3.65;;;2.50;;
7497;SDS011;3790;48.806;9.140;2023-05-14T13:51:35;3.97;;;2.28;;
7497;SDS011;3790;48.806;9.140;2023-05-14T13:56:36;3.60;;;2.20;;
7497;SDS011;3790;48.806;9.140;2023-05-14T14:01:36;5.80;;;2.25;;
7497;SDS011;3790;48.806;9.140;2023-05-14T14:06:37;2.63;;;1.80;;
7497;SDS011;3790;48.806;9.140;2023-05-14T14:11:38;2.50;;;1.63;;
7497;SDS011;3790;48.806;9.140;2023-05-14T14:16:39;1.77;;;1.30;;
7497;SDS011;3790;48.806;9.140;2023-05-14T14:21:40;2.95;;;1.70;;
7497;SDS011;3790;48.806;9.140;2023-05-14T14:26:41;3.75;;;2.17;;
7497;SDS011;3790;48.806;9.140;2023-05-14T14:31:42;5.53;;;2.10;;
7497;SDS011;3790;48.806;9.140;2023-05-14T14:36:43;3.00;;;2.03;;
7497;SDS011;3790;48.806;9.140;2023-05-14T14:41:43;3.15;;;2.05;;
7497;SDS011;3790;48.806;9.140;2023-05-14T14:46:44;2.17;;;1.60;;
7497;SDS011;3790;48.806;9.140;2023-05-14T14:51:46;3.53;;;1.98;;
7497;SDS011;3790;48.806;9.140;2023-05-14T14:56:52;3.08;;;1.52;;
7497;SDS011;3790;48.806;9.140;2023-05-14T15:01:53;2.05;;;1.55;;
7497;SDS011;3790;48.806;9.140;2023-05-14T15:06:54;3.70;;;1.98;;
7497;SDS011;3790;48.806;9.140;2023-05-14T15:11:55;2.80;;;1.80;;
7497;SDS011;3790;48.806;9.140;2023-05-14T15:16:55;2.97;;;1.80;;
7497;SDS011;3790;48.806;9.140;2023-05-14T15:21:56;2.40;;;1.58;;
7497;SDS011;3790;48.806;9.140;2023-05-14T15:26:57;2.13;;;1.52;;
7497;SDS011;3790;48.806;9.140;2023-05-14T15:31:57;3.55;;;1.95;;
7497;SDS011;3790;48.806;9.140;2023-05-14T15:36:58;2.50;;;1.60;;
7497;SDS011;3790;48.806;9.140;2023-05-14T15:41:58;2.88;;;1.77;;
7497;SDS011;3790;48.806;9.140;2023-05-14T15:47:03;3.53;;;1.95;;
7497;SDS011;3790;48.806;9.140;2023-05-14T15:52:03;3.08;;;1.65;;
7497;SDS011;3790;48.806;9.140;2023-05-14T15:57:04;3.28;;;2.00;;
7497;SDS011;3790;48.806;9.140;2023-05-14T16:02:05;2.50;;;1.60;;
7497;SDS011;3790;48.806;9.140;2023-05-14T16:07:07;2.83;;;1.63;;
7497;SDS011;3790;48.806;9.140;2023-05-14T16:12:11;2.55;;;1.48;;
7497;SDS011;3790;48.806;9.140;2023-05-14T16:17:11;2.38;;;1.50;;
7497;SDS011;3790;48.806;9.140;2023-05-14T16:22:12;2.72;;;1.65;;
7497;SDS011;3790;48.806;9.140;2023-05-14T16:27:12;3.67;;;1.77;;
7497;SDS011;3790;48.806;9.140;2023-05-14T16:32:18;3.08;;;1.80;;
7497;SDS011;3790;48.806;9.140;2023-05-14T16:37:18;2.42;;;1.63;;
7497;SDS011;3790;48.806;9.140;2023-05-14T16:42:19;3.08;;;1.80;;
7497;SDS011;3790;48.806;9.140;2023-05-14T16:47:20;2.28;;;1.60;;
7497;SDS011;3790;48.806;9.140;2023-05-14T16:52:20;2.25;;;1.40;;
7497;SDS011;3790;48.806;9.140;2023-05-14T16:57:21;2.13;;;1.40;;
7497;SDS011;3790;48.806;9.140;2023-05-14T17:02:21;2.60;;;1.85;;
7497;SDS011;3790;48.806;9.140;2023-05-14T17:07:22;2.40;;;1.80;;
7497;SDS011;3790;48.806;9.140;2023-05-14T17:12:22;3.63;;;1.77;;
7497;SDS011;3790;48.806;9.140;2023-05-14T17:17:23;2.97;;;1.90;;
7497;SDS011;3790;48.806;9.140;2023-05-14T17:22:24;3.10;;;1.67;;
7497;SDS011;3790;48.806;9.140;2023-05-14T17:27:24;3.25;;;2.05;;
7497;SDS011;3790;48.806;9.140;2023-05-14T17:32:32;2.60;;;1.60;;
7497;SDS011;3790;48.806;9.140;2023-05-14T17:37:33;3.40;;;1.80;;
7497;SDS011;3790;48.806;9.140;2023-05-14T17:42:35;2.45;;;1.52;;
7497;SDS011;3790;48.806;9.140;2023-05-14T17:47:35;1.98;;;1.35;;
7497;SDS011;3790;48.806;9.140;2023-05-14T17:52:36;2.50;;;1.73;;
7497;SDS011;3790;48.806;9.140;2023-05-14T17:57:37;2.90;;;1.50;;
7497;SDS011;3790;48.806;9.140;2023-05-14T18:02:37;10.38;;;1.63;;
7497;SDS011;3790;48.806;9.140;2023-05-14T18:07:38;2.65;;;1.88;;
7497;SDS011;3790;48.806;9.140;2023-05-14T18:12:39;3.25;;;1.75;;
7497;SDS011;3790;48.806;9.140;2023-05-14T18:17:40;3.20;;;1.55;;
7497;SDS011;3790;48.806;9.140;2023-05-14T18:22:41;3.40;;;1.77;;
7497;SDS011;3790;48.806;9.140;2023-05-14T18:27:44;2.60;;;1.60;;
7497;SDS011;3790;48.806;9.140;2023-05-14T18:32:56;2.75;;;1.45;;
7497;SDS011;3790;48.806;9.140;2023-05-14T18:37:58;3.92;;;1.60;;
7497;SDS011;3790;48.806;9.140;2023-05-14T18:42:59;4.50;;;1.80;;
7497;SDS011;3790;48.806;9.140;2023-05-14T18:47:59;3.28;;;1.77;;
7497;SDS011;3790;48.806;9.140;2023-05-14T18:53:00;3.00;;;1.85;;
7497;SDS011;3790;48.806;9.140;2023-05-14T18:58:01;2.92;;;1.30;;
7497;SDS011;3790;48.806;9.140;2023-05-14T19:03:01;2.78;;;1.55;;
7497;SDS011;3790;48.806;9.140;2023-05-14T19:08:02;2.40;;;1.30;;
7497;SDS011;3790;48.806;9.140;2023-05-14T19:13:03;4.75;;;1.88;;
7497;SDS011;3790;48.806;9.140;2023-05-14T19:18:03;2.22;;;1.45;;
7497;SDS011;3790;48.806;9.140;2023-05-14T19:23:04;2.58;;;1.60;;
7497;SDS011;3790;48.806;9.140;2023-05-14T19:28:04;3.20;;;1.83;;
7497;SDS011;3790;48.806;9.140;2023-05-14T19:33:05;2.88;;;1.50;;
7497;SDS011;3790;48.806;9.140;2023-05-14T19:38:05;3.35;;;1.98;;
7497;SDS011;3790;48.806;9.140;2023-05-14T19:43:08;4.05;;;2.00;;
7497;SDS011;3790;48.806;9.140;2023-05-14T19:48:10;2.63;;;1.77;;
7497;SDS011;3790;48.806;9.140;2023-05-14T19:53:12;4.72;;;2.53;;
7497;SDS011;3790;48.806;9.140;2023-05-14T19:58:13;3.50;;;2.00;;
7497;SDS011;3790;48.806;9.140;2023-05-14T20:03:13;3.08;;;2.10;;
7497;SDS011;3790;48.806;9.140;2023-05-14T20:08:14;4.45;;;2.58;;
7497;SDS011;3790;48.806;9.140;2023-05-14T20:13:15;3.80;;;2.20;;
7497;SDS011;3790;48.806;9.140;2023-05-14T20:18:15;4.05;;;2.65;;
7497;SDS011;3790;48.806;9.140;2023-05-14T20:23:16;3.33;;;2.30;;
7497;SDS011;3790;48.806;9.140;2023-05-14T20:28:17;4.07;;;2.60;;
7497;SDS011;3790;48.806;9.140;2023-05-14T20:33:17;4.55;;;2.63;;
7497;SDS011;3790;48.806;9.140;2023-05-14T20:38:18;3.03;;;1.92;;
7497;SDS011;3790;48.806;9.140;2023-05-14T20:43:18;3.90;;;2.05;;
7497;SDS011;3790;48.806;9.140;2023-05-14T20:48:19;3.22;;;2.30;;
7497;SDS011;3790;48.806;9.140;2023-05-14T20:53:20;3.03;;;2.33;;
7497;SDS011;3790;48.806;9.140;2023-05-14T20:58:21;4.72;;;2.72;;
7497;SDS011;3790;48.806;9.140;2023-05-14T21:03:22;4.03;;;2.58;;
7497;SDS011;3790;48.806;9.140;2023-05-14T21:08:22;8.07;;;2.50;;
7497;SDS011;3790;48.806;9.140;2023-05-14T21:13:23;3.92;;;2.40;;
7497;SDS011;3790;48.806;9.140;2023-05-14T21:18:23;3.10;;;2.05;;
7497;SDS011;3790;48.806;9.140;2023-05-14T21:23:25;2.80;;;1.75;;
7497;SDS011;3790;48.806;9.140;2023-05-14T21:28:26;4.32;;;2.05;;
7497;SDS011;3790;48.806;9.140;2023-05-14T21:33:26;4.10;;;2.60;;
7497;SDS011;3790;48.806;9.140;2023-05-14T21:38:27;3.25;;;2.17;;
7497;SDS011;3790;48.806;9.140;2023-05-14T21:43:28;3.90;;;2.23;;
7497;SDS011;3790;48.806;9.140;2023-05-14T21:48:29;3.78;;;2.78;;
7497;SDS011;3790;48.806;9.140;2023-05-14T21:53:29;3.67;;;2.47;;
7497;SDS011;3790;48.806;9.140;2023-05-14T21:58:30;5.57;;;3.13;;
7497;SDS011;3790;48.806;9.140;2023-05-14T22:03:30;3.10;;;2.30;;
7497;SDS011;3790;48.806;9.140;2023-05-14T22:08:31;3.67;;;2.27;;
7497;SDS011;3790;48.806;9.140;2023-05-14T22:13:31;5.30;;;2.20;;
7497;SDS011;3790;48.806;9.140;2023-05-14T22:18:34;3.60;;;2.00;;
7497;SDS011;3790;48.806;9.140;2023-05-14T22:23:38;3.40;;;2.27;;
7497;SDS011;3790;48.806;9.140;2023-05-14T22:28:38;3.87;;;2.47;;
7497;SDS011;3790;48.806;9.140;2023-05-14T22:33:41;3.57;;;2.27;;
7497;SDS011;3790;48.806;9.140;2023-05-14T22:38:42;5.33;;;3.13;;
7497;SDS011;3790;48.806;9.140;2023-05-14T22:43:42;3.90;;;2.58;;
7497;SDS011;3790;48.806;9.140;2023-05-14T22:48:43;3.33;;;2.43;;
7497;SDS011;3790;48.806;9.140;2023-05-14T22:53:44;3.03;;;1.90;;
7497;SDS011;3790;48.806;9.140;2023-05-14T22:58:45;3.40;;;2.23;;
7497;SDS011;3790;48.806;9.140;2023-05-14T23:03:46;3.00;;;2.20;;
7497;SDS011;3790;48.806;9.140;2023-05-14T23:08:53;3.27;;;1.93;;
7497;SDS011;3790;48.806;9.140;2023-05-14T23:13:56;3.30;;;2.00;;
7497;SDS011;3790;48.806;9.140;2023-05-14T23:18:59;2.77;;;1.87;;
7497;SDS011;3790;48.806;9.140;2023-05-14T23:29:50;3.30;;;1.80;;
7497;SDS011;3790;48.806;9.140;2023-05-14T23:34:52;3.80;;;2.63;;
7497;SDS011;3790;48.806;9.140;2023-05-14T23:40:06;2.90;;;1.80;;
7497;SDS011;3790;48.806;9.140;2023-05-14T23:45:08;2.77;;;1.83;;
7497;SDS011;3790;48.806;9.140;2023-05-14T23:50:08;3.20;;;1.53;;
7497;SDS011;3790;48.806;9.140;2023-05-14T23:55:09;2.43;;;1.67;;
